createdAt,value
2016-06-11T00:00:10.901Z,1005.15
2016-06-11T00:01:10.904Z,1005.16
2016-06-11T00:02:10.860Z,1005.14
2016-06-11T00:03:10.863Z,1005.14
2016-06-11T00:04:10.851Z,1005.11
2016-06-11T00:05:10.838Z,1005.12
2016-06-11T00:06:10.826Z,1005.15
2016-06-11T00:07:10.814Z,1005.13
2016-06-11T00:08:10.800Z,1005.13
2016-06-11T00:09:10.789Z,1005.14
2016-06-11T00:10:10.775Z,1005.14
2016-06-11T00:11:10.762Z,1005.12
2016-06-11T00:12:10.751Z,1005.1
2016-06-11T00:13:10.738Z,1005.12
2016-06-11T00:14:10.726Z,1005.12
2016-06-11T00:15:10.713Z,1005.15
2016-06-11T00:16:10.699Z,1005.12
2016-06-11T00:17:10.688Z,1005.12
2016-06-11T00:18:10.675Z,1005.1
2016-06-11T00:19:10.662Z,1005.14
2016-06-11T00:20:10.650Z,1005.12
2016-06-11T00:21:10.634Z,1005.14
2016-06-11T00:22:10.622Z,1005.1
2016-06-11T00:23:10.610Z,1005.12
2016-06-11T00:24:10.596Z,1005.12
2016-06-11T00:25:10.584Z,1005.09
2016-06-11T00:26:10.572Z,1005.1
2016-06-11T00:27:10.559Z,1005.09
2016-06-11T00:28:10.562Z,1005.05
2016-06-11T00:29:10.534Z,1005.06
2016-06-11T00:30:10.522Z,1005.08
2016-06-11T00:31:10.509Z,1005.1
2016-06-11T00:32:10.496Z,1005.06
2016-06-11T00:33:10.484Z,1005.09
2016-06-11T00:34:10.471Z,1005.04
2016-06-11T00:35:10.458Z,1005.08
2016-06-11T00:36:10.446Z,1005.1
2016-06-11T00:37:10.434Z,1005.09
2016-06-11T00:38:10.421Z,1005.02
2016-06-11T00:39:10.409Z,1005.05
2016-06-11T00:40:10.395Z,1005.03
2016-06-11T00:41:10.384Z,1005.03
2016-06-11T00:42:10.371Z,1005.03
2016-06-11T00:43:10.358Z,1005.04
2016-06-11T00:44:10.346Z,1005.02
2016-06-11T00:45:10.333Z,1005.01
2016-06-11T00:46:10.321Z,1005.01
2016-06-11T00:47:10.308Z,1005.01
2016-06-11T00:48:10.296Z,1004.99
2016-06-11T00:49:10.283Z,1005.01
2016-06-11T00:50:10.270Z,1004.99
2016-06-11T00:51:10.258Z,1005
2016-06-11T00:52:10.246Z,1005.01
2016-06-11T00:53:10.232Z,1005
2016-06-11T00:54:10.221Z,1005.01
2016-06-11T00:55:10.208Z,1005
2016-06-11T00:56:10.195Z,1004.99
2016-06-11T00:57:10.183Z,1004.99
2016-06-11T00:58:10.169Z,1005
2016-06-11T00:59:10.173Z,1004.96
2016-06-11T01:00:10.145Z,1004.99
2016-06-11T01:01:10.132Z,1004.99
2016-06-11T01:02:10.120Z,1004.97
2016-06-11T01:03:10.107Z,1004.98
2016-06-11T01:04:10.094Z,1004.97
2016-06-11T01:05:10.083Z,1004.98
2016-06-11T01:06:10.069Z,1004.95
2016-06-11T01:07:10.057Z,1004.97
2016-06-11T01:08:10.044Z,1004.96
2016-06-11T01:09:10.032Z,1004.96
2016-06-11T01:10:10.066Z,1004.96
2016-06-11T01:11:10.023Z,1005.01
2016-06-11T01:12:10.041Z,1005.02
2016-06-11T01:13:09.982Z,1005.01
2016-06-11T01:14:09.969Z,1005
2016-06-11T01:15:09.956Z,1005.01
2016-06-11T01:16:09.944Z,1005.02
2016-06-11T01:17:09.931Z,1005.03
2016-06-11T01:18:09.920Z,1004.99
2016-06-11T01:19:09.907Z,1005
2016-06-11T01:20:09.893Z,1004.99
2016-06-11T01:21:09.882Z,1005.02
2016-06-11T01:22:09.869Z,1005.04
2016-06-11T01:23:09.855Z,1005.03
2016-06-11T01:24:09.844Z,1005.02
2016-06-11T01:25:09.830Z,1005.03
2016-06-11T01:26:09.819Z,1005.02
2016-06-11T01:27:09.806Z,1005.01
2016-06-11T01:28:09.793Z,1005.01
2016-06-11T01:29:09.781Z,1004.97
2016-06-11T01:30:09.768Z,1004.98
2016-06-11T01:31:09.756Z,1004.97
2016-06-11T01:32:09.743Z,1005.01
2016-06-11T01:33:09.716Z,1004.95
2016-06-11T01:34:09.718Z,1004.98
2016-06-11T01:35:09.689Z,1004.91
2016-06-11T01:36:09.678Z,1004.96
2016-06-11T01:37:09.681Z,1004.9
2016-06-11T01:38:09.668Z,1004.95
2016-06-11T01:39:09.640Z,1004.94
2016-06-11T01:40:09.627Z,1004.94
2016-06-11T01:41:09.615Z,1004.96
2016-06-11T01:42:09.603Z,1004.93
2016-06-11T01:43:09.589Z,1004.93
2016-06-11T01:44:09.577Z,1004.92
2016-06-11T01:45:09.565Z,1004.9
2016-06-11T01:46:09.567Z,1004.92
2016-06-11T01:47:09.540Z,1004.92
2016-06-11T01:48:09.526Z,1004.96
2016-06-11T01:49:09.514Z,1004.91
2016-06-11T01:50:09.502Z,1004.91
2016-06-11T01:51:09.489Z,1004.9
2016-06-11T01:52:09.476Z,1004.92
2016-06-11T01:53:09.464Z,1004.9
2016-06-11T01:54:09.451Z,1004.89
2016-06-11T01:55:09.439Z,1004.88
2016-06-11T01:56:09.426Z,1004.86
2016-06-11T01:57:09.414Z,1004.84
2016-06-11T01:58:09.417Z,1004.82
2016-06-11T01:59:09.748Z,1004.78
2016-06-11T02:00:09.985Z,1004.84
2016-06-11T02:01:09.364Z,1004.76
2016-06-11T02:02:09.350Z,1004.8
2016-06-11T02:03:09.339Z,1004.78
2016-06-11T02:04:09.326Z,1004.78
2016-06-11T02:05:09.298Z,1004.75
2016-06-11T02:06:09.301Z,1004.74
2016-06-11T02:07:09.288Z,1004.74
2016-06-11T02:08:09.276Z,1004.71
2016-06-11T02:09:09.263Z,1004.7
2016-06-11T02:10:09.251Z,1004.69
2016-06-11T02:11:09.239Z,1004.69
2016-06-11T02:12:09.225Z,1004.67
2016-06-11T02:13:09.198Z,1004.67
2016-06-11T02:14:09.201Z,1004.66
2016-06-11T02:15:09.173Z,1004.68
2016-06-11T02:16:09.159Z,1004.68
2016-06-11T02:17:09.147Z,1004.69
2016-06-11T02:18:09.135Z,1004.68
2016-06-11T02:19:09.122Z,1004.66
2016-06-11T02:20:09.110Z,1004.69
2016-06-11T02:21:09.097Z,1004.7
2016-06-11T02:22:09.084Z,1004.73
2016-06-11T02:23:09.072Z,1004.72
2016-06-11T02:24:09.060Z,1004.71
2016-06-11T02:25:09.046Z,1004.71
2016-06-11T02:26:09.034Z,1004.71
2016-06-11T02:27:09.022Z,1004.76
2016-06-11T02:28:09.010Z,1004.75
2016-06-11T02:29:08.996Z,1004.77
2016-06-11T02:30:09.500Z,1004.71
2016-06-11T02:31:08.971Z,1004.74
2016-06-11T02:32:08.959Z,1004.72
2016-06-11T02:33:08.946Z,1004.71
2016-06-11T02:34:08.934Z,1004.69
2016-06-11T02:35:08.921Z,1004.69
2016-06-11T02:36:08.909Z,1004.72
2016-06-11T02:37:08.880Z,1004.71
2016-06-11T02:38:08.883Z,1004.71
2016-06-11T02:39:08.856Z,1004.72
2016-06-11T02:40:08.842Z,1004.66
2016-06-11T02:41:08.830Z,1004.72
2016-06-11T02:42:08.817Z,1004.72
2016-06-11T02:43:08.821Z,1004.69
2016-06-11T02:44:08.793Z,1004.71
2016-06-11T02:45:08.780Z,1004.7
2016-06-11T02:46:08.767Z,1004.68
2016-06-11T02:47:08.755Z,1004.71
2016-06-11T02:48:08.742Z,1004.69
2016-06-11T02:49:08.730Z,1004.66
2016-06-11T02:50:08.717Z,1004.67
2016-06-11T02:51:08.705Z,1004.65
2016-06-11T02:52:08.692Z,1004.67
2016-06-11T02:53:08.680Z,1004.68
2016-06-11T02:54:08.667Z,1004.69
2016-06-11T02:55:08.654Z,1004.7
2016-06-11T02:56:08.642Z,1004.67
2016-06-11T02:57:08.630Z,1004.68
2016-06-11T02:58:08.601Z,1004.67
2016-06-11T02:59:08.605Z,1004.65
2016-06-11T03:00:08.904Z,1004.69
2016-06-11T03:01:08.564Z,1004.7
2016-06-11T03:02:08.567Z,1004.68
2016-06-11T03:03:08.539Z,1004.66
2016-06-11T03:04:08.541Z,1004.66
2016-06-11T03:05:08.513Z,1004.68
2016-06-11T03:06:08.502Z,1004.69
2016-06-11T03:07:08.504Z,1004.68
2016-06-11T03:08:08.475Z,1004.69
2016-06-11T03:09:08.464Z,1004.69
2016-06-11T03:10:08.451Z,1004.72
2016-06-11T03:11:08.438Z,1004.7
2016-06-11T03:12:08.425Z,1004.72
2016-06-11T03:13:08.412Z,1004.7
2016-06-11T03:14:08.401Z,1004.72
2016-06-11T03:15:08.388Z,1004.75
2016-06-11T03:16:08.375Z,1004.72
2016-06-11T03:17:08.363Z,1004.71
2016-06-11T03:18:08.350Z,1004.7
2016-06-11T03:19:08.337Z,1004.68
2016-06-11T03:20:08.326Z,1004.69
2016-06-11T03:21:08.312Z,1004.69
2016-06-11T03:22:08.284Z,1004.67
2016-06-11T03:23:08.288Z,1004.7
2016-06-11T03:24:08.260Z,1004.67
2016-06-11T03:25:08.262Z,1004.67
2016-06-11T03:26:08.234Z,1004.67
2016-06-11T03:27:08.222Z,1004.64
2016-06-11T03:28:08.209Z,1004.63
2016-06-11T03:29:08.197Z,1004.6
2016-06-11T03:30:08.184Z,1004.63
2016-06-11T03:31:08.171Z,1004.59
2016-06-11T03:32:08.159Z,1004.6
2016-06-11T03:33:08.146Z,1004.62
2016-06-11T03:34:08.134Z,1004.61
2016-06-11T03:35:08.122Z,1004.62
2016-06-11T03:36:08.108Z,1004.65
2016-06-11T03:37:08.097Z,1004.59
2016-06-11T03:38:08.068Z,1004.62
2016-06-11T03:39:08.055Z,1004.57
2016-06-11T03:40:08.043Z,1004.58
2016-06-11T03:41:08.030Z,1004.58
2016-06-11T03:42:08.018Z,1004.59
2016-06-11T03:43:08.005Z,1004.55
2016-06-11T03:44:07.993Z,1004.55
2016-06-11T03:45:07.980Z,1004.58
2016-06-11T03:46:07.967Z,1004.56
2016-06-11T03:47:07.955Z,1004.56
2016-06-11T03:48:07.943Z,1004.58
2016-06-11T03:49:07.930Z,1004.59
2016-06-11T03:50:07.918Z,1004.6
2016-06-11T03:51:07.904Z,1004.63
2016-06-11T03:52:07.893Z,1004.59
2016-06-11T03:53:07.864Z,1004.62
2016-06-11T03:54:07.930Z,1004.63
2016-06-11T03:55:07.855Z,1004.61
2016-06-11T03:56:07.842Z,1004.64
2016-06-11T03:57:07.814Z,1004.69
2016-06-11T03:58:07.801Z,1004.66
2016-06-11T03:59:07.790Z,1004.69
2016-06-11T04:00:08.463Z,1004.68
2016-06-11T04:01:07.763Z,1004.72
2016-06-11T04:02:07.782Z,1004.72
2016-06-11T04:03:07.738Z,1004.71
2016-06-11T04:04:07.741Z,1004.73
2016-06-11T04:05:07.713Z,1004.71
2016-06-11T04:06:07.701Z,1004.75
2016-06-11T04:07:07.689Z,1004.73
2016-06-11T04:08:07.675Z,1004.79
2016-06-11T04:09:07.663Z,1004.74
2016-06-11T04:10:07.635Z,1004.74
2016-06-11T04:11:07.622Z,1004.76
2016-06-11T04:12:07.610Z,1004.74
2016-06-11T04:13:07.597Z,1004.73
2016-06-11T04:14:07.600Z,1004.75
2016-06-11T04:15:07.589Z,1004.74
2016-06-11T04:16:07.559Z,1004.75
2016-06-11T04:17:07.547Z,1004.75
2016-06-11T04:18:07.535Z,1004.77
2016-06-11T04:19:07.521Z,1004.76
2016-06-11T04:20:07.509Z,1004.75
2016-06-11T04:21:07.497Z,1004.76
2016-06-11T04:22:07.485Z,1004.75
2016-06-11T04:23:07.472Z,1004.76
2016-06-11T04:24:07.459Z,1004.73
2016-06-11T04:25:07.448Z,1004.77
2016-06-11T04:26:07.434Z,1004.79
2016-06-11T04:27:07.406Z,1004.79
2016-06-11T04:28:07.393Z,1004.73
2016-06-11T04:29:07.382Z,1004.74
2016-06-11T04:30:07.368Z,1004.73
2016-06-11T04:31:07.356Z,1004.75
2016-06-11T04:32:07.344Z,1004.75
2016-06-11T04:33:07.347Z,1004.7
2016-06-11T04:34:07.318Z,1004.72
2016-06-11T04:35:07.306Z,1004.73
2016-06-11T04:36:07.293Z,1004.69
2016-06-11T04:37:07.281Z,1004.69
2016-06-11T04:38:07.268Z,1004.69
2016-06-11T04:39:07.255Z,1004.71
2016-06-11T04:40:07.243Z,1004.68
2016-06-11T04:41:07.230Z,1004.7
2016-06-11T04:42:07.203Z,1004.71
2016-06-11T04:43:07.205Z,1004.73
2016-06-11T04:44:07.192Z,1004.73
2016-06-11T04:45:07.181Z,1004.72
2016-06-11T04:46:07.167Z,1004.75
2016-06-11T04:47:07.139Z,1004.74
2016-06-11T04:48:07.127Z,1004.73
2016-06-11T04:49:07.114Z,1004.75
2016-06-11T04:50:07.102Z,1004.76
2016-06-11T04:51:07.089Z,1004.76
2016-06-11T04:52:07.077Z,1004.77
2016-06-11T04:53:07.064Z,1004.78
2016-06-11T04:54:07.052Z,1004.77
2016-06-11T04:55:07.039Z,1004.76
2016-06-11T04:56:07.026Z,1004.77
2016-06-11T04:57:07.013Z,1004.76
2016-06-11T04:58:07.001Z,1004.76
2016-06-11T04:59:06.974Z,1004.82
2016-06-11T05:00:06.977Z,1004.82
2016-06-11T05:01:06.979Z,1004.82
2016-06-11T05:02:06.936Z,1004.86
2016-06-11T05:03:06.939Z,1004.86
2016-06-11T05:04:06.910Z,1004.84
2016-06-11T05:05:06.898Z,1004.88
2016-06-11T05:06:06.885Z,1004.83
2016-06-11T05:07:06.873Z,1004.9
2016-06-11T05:08:06.861Z,1004.86
2016-06-11T05:09:06.847Z,1004.86
2016-06-11T05:10:06.836Z,1004.87
2016-06-11T05:11:06.822Z,1004.91
2016-06-11T05:12:06.810Z,1004.9
2016-06-11T05:13:06.798Z,1004.88
2016-06-11T05:14:06.784Z,1004.89
2016-06-11T05:15:06.773Z,1004.91
2016-06-11T05:16:06.760Z,1004.88
2016-06-11T05:17:06.732Z,1004.88
2016-06-11T05:18:06.719Z,1004.89
2016-06-11T05:19:06.706Z,1004.84
2016-06-11T05:20:06.695Z,1004.85
2016-06-11T05:21:06.682Z,1004.88
2016-06-11T05:22:06.669Z,1004.87
2016-06-11T05:23:06.656Z,1004.9
2016-06-11T05:24:06.644Z,1004.88
2016-06-11T05:25:06.631Z,1004.91
2016-06-11T05:26:06.619Z,1004.88
2016-06-11T05:27:06.622Z,1004.87
2016-06-11T05:28:06.593Z,1004.91
2016-06-11T05:29:06.581Z,1004.88
2016-06-11T05:30:07.350Z,1004.89
2016-06-11T05:31:06.556Z,1004.93
2016-06-11T05:32:06.543Z,1004.95
2016-06-11T05:33:06.531Z,1004.96
2016-06-11T05:34:06.518Z,1004.97
2016-06-11T05:35:06.505Z,1004.97
2016-06-11T05:36:06.494Z,1004.97
2016-06-11T05:37:06.480Z,1004.99
2016-06-11T05:38:06.452Z,1004.97
2016-06-11T05:39:06.456Z,1005
2016-06-11T05:40:06.442Z,1004.96
2016-06-11T05:41:06.430Z,1004.97
2016-06-11T05:42:06.402Z,1005.01
2016-06-11T05:43:06.405Z,1005
2016-06-11T05:44:06.377Z,1005
2016-06-11T05:45:06.521Z,1004.97
2016-06-11T05:46:06.369Z,1005
2016-06-11T05:47:06.339Z,1004.99
2016-06-11T05:48:06.327Z,1005.01
2016-06-11T05:49:06.314Z,1005.04
2016-06-11T05:50:06.302Z,1005.05
2016-06-11T05:51:06.304Z,1005.08
2016-06-11T05:52:06.276Z,1005.08
2016-06-11T05:53:06.265Z,1005.07
2016-06-11T05:54:06.252Z,1005.08
2016-06-11T05:55:06.255Z,1005.07
2016-06-11T05:56:06.241Z,1005.07
2016-06-11T05:57:06.248Z,1005.09
2016-06-11T05:58:06.277Z,1005.1
2016-06-11T05:59:06.305Z,1005.09
2016-06-11T06:00:06.332Z,1005.08
2016-06-11T06:01:06.377Z,1005.1
2016-06-11T06:02:06.383Z,1005.09
2016-06-11T06:03:06.385Z,1005.05
2016-06-11T06:04:06.371Z,1005.08
2016-06-11T06:05:06.373Z,1005.1
2016-06-11T06:06:06.375Z,1005.11
2016-06-11T06:07:06.370Z,1005.11
2016-06-11T06:08:06.362Z,1005.09
2016-06-11T06:09:06.356Z,1005.08
2016-06-11T06:10:06.348Z,1005.1
2016-06-11T06:11:06.341Z,1005.11
2016-06-11T06:12:06.331Z,1005.11
2016-06-11T06:13:06.320Z,1005.17
2016-06-11T06:14:06.309Z,1005.12
2016-06-11T06:15:06.299Z,1005.16
2016-06-11T06:16:06.288Z,1005.21
2016-06-11T06:17:06.277Z,1005.17
2016-06-11T06:18:06.265Z,1005.18
2016-06-11T06:19:06.252Z,1005.17
2016-06-11T06:20:06.241Z,1005.18
2016-06-11T06:21:06.229Z,1005.15
2016-06-11T06:22:06.217Z,1005.18
2016-06-11T06:23:06.220Z,1005.17
2016-06-11T06:24:06.192Z,1005.22
2016-06-11T06:25:06.179Z,1005.16
2016-06-11T06:26:06.167Z,1005.18
2016-06-11T06:27:06.154Z,1005.17
2016-06-11T06:28:06.142Z,1005.21
2016-06-11T06:29:06.129Z,1005.2
2016-06-11T06:30:06.116Z,1005.19
2016-06-11T06:31:06.104Z,1005.23
2016-06-11T06:32:06.091Z,1005.24
2016-06-11T06:33:06.080Z,1005.24
2016-06-11T06:34:06.066Z,1005.28
2016-06-11T06:35:06.069Z,1005.27
2016-06-11T06:36:06.042Z,1005.29
2016-06-11T06:37:06.107Z,1005.29
2016-06-11T06:38:06.015Z,1005.3
2016-06-11T06:39:06.004Z,1005.29
2016-06-11T06:40:06.007Z,1005.31
2016-06-11T06:41:05.979Z,1005.34
2016-06-11T06:42:05.997Z,1005.35
2016-06-11T06:43:05.954Z,1005.37
2016-06-11T06:44:05.941Z,1005.36
2016-06-11T06:45:06.397Z,1005.34
2016-06-11T06:46:05.962Z,1005.36
2016-06-11T06:47:05.904Z,1005.39
2016-06-11T06:48:05.891Z,1005.37
2016-06-11T06:49:05.893Z,1005.34
2016-06-11T06:50:05.865Z,1005.37
2016-06-11T06:51:05.853Z,1005.37
2016-06-11T06:52:05.856Z,1005.4
2016-06-11T06:53:05.827Z,1005.35
2016-06-11T06:54:05.815Z,1005.36
2016-06-11T06:55:05.803Z,1005.4
2016-06-11T06:56:05.806Z,1005.42
2016-06-11T06:57:05.778Z,1005.41
2016-06-11T06:58:05.766Z,1005.44
2016-06-11T06:59:05.752Z,1005.46
2016-06-11T07:00:06.333Z,1005.45
2016-06-11T07:01:05.744Z,1005.46
2016-06-11T07:02:05.714Z,1005.43
2016-06-11T07:03:05.703Z,1005.48
2016-06-11T07:04:05.689Z,1005.51
2016-06-11T07:05:05.678Z,1005.5
2016-06-11T07:06:05.665Z,1005.45
2016-06-11T07:07:05.652Z,1005.48
2016-06-11T07:08:05.640Z,1005.47
2016-06-11T07:09:05.627Z,1005.46
2016-06-11T07:10:05.614Z,1005.45
2016-06-11T07:11:05.602Z,1005.48
2016-06-11T07:12:05.589Z,1005.5
2016-06-11T07:13:05.577Z,1005.49
2016-06-11T07:14:05.564Z,1005.46
2016-06-11T07:15:05.552Z,1005.48
2016-06-11T07:16:05.664Z,1005.47
2016-06-11T07:17:05.542Z,1005.47
2016-06-11T07:18:05.514Z,1005.5
2016-06-11T07:19:05.502Z,1005.45
2016-06-11T07:20:05.504Z,1005.48
2016-06-11T07:21:05.477Z,1005.44
2016-06-11T07:22:05.464Z,1005.48
2016-06-11T07:23:05.451Z,1005.48
2016-06-11T07:24:05.454Z,1005.48
2016-06-11T07:25:05.426Z,1005.47
2016-06-11T07:26:05.413Z,1005.45
2016-06-11T07:27:05.401Z,1005.47
2016-06-11T07:28:05.388Z,1005.42
2016-06-11T07:29:05.377Z,1005.42
2016-06-11T07:30:05.364Z,1005.47
2016-06-11T07:31:05.350Z,1005.47
2016-06-11T07:32:05.339Z,1005.49
2016-06-11T07:33:05.341Z,1005.48
2016-06-11T07:34:05.313Z,1005.49
2016-06-11T07:35:05.316Z,1005.49
2016-06-11T07:36:05.288Z,1005.5
2016-06-11T07:37:05.291Z,1005.47
2016-06-11T07:38:05.279Z,1005.5
2016-06-11T07:39:05.266Z,1005.5
2016-06-11T07:40:05.254Z,1005.48
2016-06-11T07:41:05.241Z,1005.5
2016-06-11T07:42:05.228Z,1005.52
2016-06-11T07:43:05.216Z,1005.5
2016-06-11T07:44:05.204Z,1005.48
2016-06-11T07:45:05.190Z,1005.49
2016-06-11T07:46:05.179Z,1005.49
2016-06-11T07:47:05.166Z,1005.47
2016-06-11T07:48:05.153Z,1005.44
2016-06-11T07:49:05.141Z,1005.49
2016-06-11T07:50:05.128Z,1005.45
2016-06-11T07:51:05.115Z,1005.44
2016-06-11T07:52:05.103Z,1005.46
2016-06-11T07:53:05.090Z,1005.43
2016-06-11T07:54:05.094Z,1005.43
2016-06-11T07:55:05.082Z,1005.44
2016-06-11T07:56:05.068Z,1005.45
2016-06-11T07:57:05.055Z,1005.45
2016-06-11T07:58:05.044Z,1005.46
2016-06-11T07:59:05.031Z,1005.43
2016-06-11T08:00:05.018Z,1005.44
2016-06-11T08:01:05.006Z,1005.46
2016-06-11T08:02:04.993Z,1005.41
2016-06-11T08:03:04.981Z,1005.39
2016-06-11T08:04:04.968Z,1005.4
2016-06-11T08:05:04.955Z,1005.41
2016-06-11T08:06:04.959Z,1005.41
2016-06-11T08:07:04.946Z,1005.4
2016-06-11T08:08:04.934Z,1005.4
2016-06-11T08:09:04.920Z,1005.4
2016-06-11T08:10:04.908Z,1005.39
2016-06-11T08:11:04.895Z,1005.42
2016-06-11T08:12:04.884Z,1005.42
2016-06-11T08:13:04.871Z,1005.43
2016-06-11T08:14:04.857Z,1005.44
2016-06-11T08:15:04.846Z,1005.41
2016-06-11T08:16:04.833Z,1005.43
2016-06-11T08:17:04.820Z,1005.44
2016-06-11T08:18:04.823Z,1005.43
2016-06-11T08:19:04.796Z,1005.45
2016-06-11T08:20:04.798Z,1005.47
2016-06-11T08:21:04.770Z,1005.44
2016-06-11T08:22:04.757Z,1005.44
2016-06-11T08:23:04.761Z,1005.44
2016-06-11T08:24:04.749Z,1005.49
2016-06-11T08:25:04.736Z,1005.49
2016-06-11T08:26:04.723Z,1005.46
2016-06-11T08:27:04.711Z,1005.47
2016-06-11T08:28:04.698Z,1005.48
2016-06-11T08:29:04.686Z,1005.47
2016-06-11T08:30:04.673Z,1005.51
2016-06-11T08:31:05.067Z,1005.49
2016-06-11T08:32:04.648Z,1005.52
2016-06-11T08:33:04.651Z,1005.52
2016-06-11T08:34:04.638Z,1005.54
2016-06-11T08:35:04.625Z,1005.53
2016-06-11T08:36:04.614Z,1005.53
2016-06-11T08:37:04.601Z,1005.5
2016-06-11T08:38:04.588Z,1005.52
2016-06-11T08:39:04.575Z,1005.51
2016-06-11T08:40:04.563Z,1005.53
2016-06-11T08:41:04.551Z,1005.5
2016-06-11T08:42:04.554Z,1005.54
2016-06-11T08:43:04.525Z,1005.49
2016-06-11T08:44:04.528Z,1005.56
2016-06-11T08:45:04.516Z,1005.53
2016-06-11T08:46:04.503Z,1005.53
2016-06-11T08:47:04.491Z,1005.52
2016-06-11T08:48:04.478Z,1005.52
2016-06-11T08:49:04.465Z,1005.51
2016-06-11T08:50:04.468Z,1005.5
2016-06-11T08:51:04.440Z,1005.51
2016-06-11T08:52:04.444Z,1005.53
2016-06-11T08:53:04.447Z,1005.57
2016-06-11T08:54:04.419Z,1005.53
2016-06-11T08:55:04.406Z,1005.55
2016-06-11T08:56:04.394Z,1005.56
2016-06-11T08:57:04.397Z,1005.56
2016-06-11T08:58:04.368Z,1005.54
2016-06-11T08:59:04.356Z,1005.55
2016-06-11T09:00:04.344Z,1005.55
2016-06-11T09:01:04.393Z,1005.54
2016-06-11T09:02:04.334Z,1005.55
2016-06-11T09:03:04.305Z,1005.55
2016-06-11T09:04:04.324Z,1005.52
2016-06-11T09:05:04.296Z,1005.57
2016-06-11T09:06:04.331Z,1005.55
2016-06-11T09:07:04.271Z,1005.53
2016-06-11T09:08:04.258Z,1005.54
2016-06-11T09:09:04.262Z,1005.51
2016-06-11T09:10:04.249Z,1005.53
2016-06-11T09:11:04.221Z,1005.55
2016-06-11T09:12:04.224Z,1005.51
2016-06-11T09:13:04.211Z,1005.56
2016-06-11T09:14:04.200Z,1005.54
2016-06-11T09:15:04.186Z,1005.52
2016-06-11T09:16:04.173Z,1005.57
2016-06-11T09:17:04.426Z,1005.53
2016-06-11T09:18:04.148Z,1005.59
2016-06-11T09:19:04.136Z,1005.54
2016-06-11T09:20:04.139Z,1005.53
2016-06-11T09:21:04.127Z,1005.54
2016-06-11T09:22:04.113Z,1005.52
2016-06-11T09:23:04.102Z,1005.53
2016-06-11T09:24:04.105Z,1005.54
2016-06-11T09:25:04.076Z,1005.5
2016-06-11T09:26:04.079Z,1005.47
2016-06-11T09:27:04.052Z,1005.48
2016-06-11T09:28:04.038Z,1005.5
2016-06-11T09:29:04.042Z,1005.5
2016-06-11T09:30:04.029Z,1005.51
2016-06-11T09:31:04.736Z,1005.49
2016-06-11T09:32:04.005Z,1005.52
2016-06-11T09:33:04.008Z,1005.51
2016-06-11T09:34:03.979Z,1005.49
2016-06-11T09:35:03.967Z,1005.47
2016-06-11T09:36:03.954Z,1005.5
2016-06-11T09:37:03.941Z,1005.5
2016-06-11T09:38:03.944Z,1005.49
2016-06-11T09:39:03.932Z,1005.49
2016-06-11T09:40:03.919Z,1005.46
2016-06-11T09:41:03.908Z,1005.45
2016-06-11T09:42:03.910Z,1005.46
2016-06-11T09:43:03.881Z,1005.46
2016-06-11T09:44:03.885Z,1005.44
2016-06-11T09:45:03.857Z,1005.45
2016-06-11T09:46:03.860Z,1005.43
2016-06-11T09:47:04.379Z,1005.41
2016-06-11T09:48:03.835Z,1005.42
2016-06-11T09:49:03.821Z,1005.41
2016-06-11T09:50:03.825Z,1005.44
2016-06-11T09:51:03.828Z,1005.38
2016-06-11T09:52:03.800Z,1005.4
2016-06-11T09:53:03.787Z,1005.41
2016-06-11T09:54:03.775Z,1005.39
2016-06-11T09:55:03.762Z,1005.41
2016-06-11T09:56:03.749Z,1005.4
2016-06-11T09:57:03.737Z,1005.41
2016-06-11T09:58:03.741Z,1005.41
2016-06-11T09:59:03.728Z,1005.41
2016-06-11T10:00:03.715Z,1005.39
2016-06-11T10:01:03.718Z,1005.39
2016-06-11T10:02:03.690Z,1005.37
2016-06-11T10:03:03.678Z,1005.37
2016-06-11T10:04:03.681Z,1005.38
2016-06-11T10:05:03.668Z,1005.35
2016-06-11T10:06:03.656Z,1005.38
2016-06-11T10:07:03.643Z,1005.4
2016-06-11T10:08:03.630Z,1005.42
2016-06-11T10:09:03.618Z,1005.4
2016-06-11T10:10:03.606Z,1005.39
2016-06-11T10:11:03.609Z,1005.43
2016-06-11T10:12:03.611Z,1005.44
2016-06-11T10:13:03.583Z,1005.42
2016-06-11T10:14:03.570Z,1005.41
2016-06-11T10:15:03.558Z,1005.4
2016-06-11T10:16:03.577Z,1005.41
2016-06-11T10:17:03.549Z,1005.39
2016-06-11T10:18:03.521Z,1005.41
2016-06-11T10:19:03.524Z,1005.41
2016-06-11T10:20:03.512Z,1005.4
2016-06-11T10:21:03.514Z,1005.42
2016-06-11T10:22:03.486Z,1005.44
2016-06-11T10:23:03.473Z,1005.43
2016-06-11T10:24:03.460Z,1005.38
2016-06-11T10:25:03.463Z,1005.36
2016-06-11T10:26:03.451Z,1005.39
2016-06-11T10:27:03.439Z,1005.4
2016-06-11T10:28:03.426Z,1005.4
2016-06-11T10:29:03.414Z,1005.42
2016-06-11T10:30:03.416Z,1005.43
2016-06-11T10:31:03.404Z,1005.42
2016-06-11T10:32:03.407Z,1005.46
2016-06-11T10:33:03.379Z,1005.46
2016-06-11T10:34:03.367Z,1005.47
2016-06-11T10:35:03.369Z,1005.49
2016-06-11T10:36:03.357Z,1005.46
2016-06-11T10:37:03.345Z,1005.46
2016-06-11T10:38:03.332Z,1005.48
2016-06-11T10:39:03.319Z,1005.48
2016-06-11T10:40:03.307Z,1005.5
2016-06-11T10:41:03.309Z,1005.46
2016-06-11T10:42:03.298Z,1005.49
2016-06-11T10:43:03.284Z,1005.49
2016-06-11T10:44:03.272Z,1005.48
2016-06-11T10:45:03.275Z,1005.5
2016-06-11T10:46:03.247Z,1005.48
2016-06-11T10:47:03.485Z,1005.46
2016-06-11T10:48:03.253Z,1005.48
2016-06-11T10:49:03.226Z,1005.47
2016-06-11T10:50:03.212Z,1005.46
2016-06-11T10:51:03.201Z,1005.48
2016-06-11T10:52:03.203Z,1005.45
2016-06-11T10:53:03.191Z,1005.46
2016-06-11T10:54:03.177Z,1005.47
2016-06-11T10:55:03.166Z,1005.47
2016-06-11T10:56:03.169Z,1005.49
2016-06-11T10:57:03.156Z,1005.49
2016-06-11T10:58:03.144Z,1005.5
2016-06-11T10:59:03.131Z,1005.49
2016-06-11T11:00:03.118Z,1005.52
2016-06-11T11:01:03.121Z,1005.48
2016-06-11T11:02:03.109Z,1005.51
2016-06-11T11:03:03.097Z,1005.48
2016-06-11T11:04:03.083Z,1005.48
2016-06-11T11:05:03.071Z,1005.47
2016-06-11T11:06:03.075Z,1005.44
2016-06-11T11:07:03.061Z,1005.48
2016-06-11T11:08:03.065Z,1005.46
2016-06-11T11:09:03.053Z,1005.44
2016-06-11T11:10:03.040Z,1005.45
2016-06-11T11:11:03.026Z,1005.43
2016-06-11T11:12:03.015Z,1005.43
2016-06-11T11:13:03.033Z,1005.41
2016-06-11T11:14:03.005Z,1005.39
2016-06-11T11:15:02.992Z,1005.39
2016-06-11T11:16:02.995Z,1005.41
2016-06-11T11:17:02.984Z,1005.35
2016-06-11T11:18:02.986Z,1005.33
2016-06-11T11:19:02.974Z,1005.33
2016-06-11T11:20:02.962Z,1005.36
2016-06-11T11:21:02.949Z,1005.34
2016-06-11T11:22:02.952Z,1005.32
2016-06-11T11:23:02.939Z,1005.34
2016-06-11T11:24:02.927Z,1005.32
2016-06-11T11:25:02.930Z,1005.31
2016-06-11T11:26:02.917Z,1005.3
2016-06-11T11:27:02.904Z,1005.34
2016-06-11T11:28:02.907Z,1005.27
2016-06-11T11:29:02.895Z,1005.3
2016-06-11T11:30:02.883Z,1005.26
2016-06-11T11:31:02.871Z,1005.25
2016-06-11T11:32:02.874Z,1005.22
2016-06-11T11:33:02.861Z,1005.25
2016-06-11T11:34:02.864Z,1005.24
2016-06-11T11:35:02.882Z,1005.24
2016-06-11T11:36:02.839Z,1005.24
2016-06-11T11:37:02.857Z,1005.24
2016-06-11T11:38:02.828Z,1005.2
2016-06-11T11:39:02.816Z,1005.23
2016-06-11T11:40:02.820Z,1005.2
2016-06-11T11:41:02.807Z,1005.23
2016-06-11T11:42:02.794Z,1005.22
2016-06-11T11:43:02.845Z,1005.23
2016-06-11T11:44:02.800Z,1005.23
2016-06-11T11:45:02.772Z,1005.22
2016-06-11T11:46:02.776Z,1005.24
2016-06-11T11:47:02.762Z,1005.21
2016-06-11T11:48:02.751Z,1005.19
2016-06-11T11:49:02.754Z,1005.19
2016-06-11T11:50:02.740Z,1005.14
2016-06-11T11:51:02.744Z,1005.14
2016-06-11T11:52:02.731Z,1005.17
2016-06-11T11:53:02.719Z,1005.14
2016-06-11T11:54:02.722Z,1005.14
2016-06-11T11:55:02.709Z,1005.11
2016-06-11T11:56:02.697Z,1005.15
2016-06-11T11:57:02.700Z,1005.13
2016-06-11T11:58:02.687Z,1005.11
2016-06-11T11:59:02.674Z,1005.09
2016-06-11T12:00:02.678Z,1005.11
2016-06-11T12:01:02.666Z,1005.1
2016-06-11T12:02:02.669Z,1005.08
2016-06-11T12:03:02.640Z,1005.05
2016-06-11T12:04:02.659Z,1005.07
2016-06-11T12:05:02.630Z,1005.08
2016-06-11T12:06:02.634Z,1005.01
2016-06-11T12:07:02.621Z,1005.09
2016-06-11T12:08:02.609Z,1005.05